Pagrindinis puslapis
METAR-TAF:

METAR-TAF

Oro uostai :

Marshall, Aliaska, Jungtinės Amerikos Valstijos

platuma: 61-51-51N, ilguma: 162-01-34W, Aukštis: 31 m

Dabartinis oras

Ataskaita buvo paskelbta 1 valandą ir 0 minutes, ne 03:02 UTC
Vėjas 9 kt iš Vakarų/Šiaurės Vakarų
Temperatūra 11°C
Drėgmė 100%
Slėgis 1003 hPa
Matomumas: 16.1 km
Su prošvaistėmis ne aukštis 1000 ft
Apsiniaukę ne aukštis 1400 ft

METAR: PADM 160302Z AUTO 29009KT 10SM BKN010 OVC014 11/11 A2961 RMK AO2 RAB02010210E02010228B0213E0241 CIG 006V012 P0003

Laikas: 20:02 (04:02 UTC)


TAF: trūkstamas

Orai ataskaitas ir orų prognozės (METAR, TAF).

turimą stotys yra geltonos ir raudonos taškus žemėlapyje.

Perkelti pele per norėdami pamatyti stoties vardą.

Tada spustelėkite, norėdami matyti oro stebėjimo ir prognozės.

Norėdami pakeisti žemėlapį: spustelėkite ant žalios mygtukų su juodo kryžiaus žemyn,; žalią mygtuką su brūkšneliu, jei norite nutolinti; arba žalių rodyklių gretimoms žemėlapius.


METAR-TAF: